Artie, West Virginia
Current Conditions -  °F | °C
As of 10:51 AM on Tuesday 21 Oct 2014 (Local Time) from KBKW Reporting Station
Overcast Overcast  
Wind Chill: 52°   Ceiling: 1300
Heat Index: 52°   Visibility: 10mi
Dew Point: 46°   Wind: 9mph
Humidity: 80%   Direction: 260°W
Pressure: 29.93"   Gusts: NA
Location:  37.93°N, 81.36°W
Report Text: KBKW 211451Z AUTO 26008KT 10SM BKN013 OVC020 11/08 A2993 RMK AO2 SLP131 T01110078 58002 TSNO
Loading
Personal Weather Stations






























Interactive Weather Map
Tropical Storm Tracking
New forecast layout! Learn more

10-Day Weather Forecast

Advertisements
Track Severe Weather on mobile